Heiskell, Tennessee
Current Conditions -  °F | °C
As of 3:53 AM on Tuesday 21 Oct 2014 (Local Time) from KOQT Reporting Station
Clear Clear  
Wind Chill: 52°   Ceiling: Unl
Heat Index: 52°   Visibility: 10mi
Dew Point: 48°   Wind: 3mph
Humidity: 86%   Direction: 270°W
Pressure: 30"   Gusts: NA
Location:  36.08°N, 84.05°W
Report Text: KOQT 210753Z AUTO 27003KT 10SM CLR 11/09 A3000 RMK AO2 SLP156 T01110089
Loading
Personal Weather Stations






























Interactive Weather Map
Tropical Storm Tracking
New forecast layout! Learn more

10-Day Weather Forecast

Advertisements
Track Severe Weather on mobile